x

Nantucket Sound (44020) Wave Buoy

10:50 - Tue 28th Jul 2015 All times are EDT. -4 hours from GMT.

  • Sig Wave height 1.0ft
  • Swell Direction
  • Peak Period 7s
  • Average Period 4s
  • Wind
    7mph, 9mph gusts
  • Sea Temp 73°f
  • Air Temp 72°f
  • Sea Pressure 1014.3mb
  • Nantucket Sound
  • Nantucket Sound

More Historic Weather Station data

Upgrade to MSW Pro to gain access to the past 30 days of data for over 8000 Wavebouys and Weather Stations around the globe.

Join Pro

Comparision Forecast

View Surf forecast
   
mar. 07/28 10:50 1ft 7s 4s 7 9 mph 1014.3mb 73f 72f
9:50 1ft 8s 5s 9 11 mph 1014.6mb 73f 71f
8:50 0.7ft  -  4s 9 11 mph 1014.3mb 73f 72f
7:50 1ft 6s 4s 9 11 mph 1013.9mb 73f 72f
6:50 0.7ft  -  3s 13 16 mph 1013.6mb 73f 73f
5:50 1ft 2s 3s 13 16 mph 1013.8mb 73f 73f
4:50 1ft 6s 3s 13 16 mph 1013.8mb 73f 73f
3:50 1ft 3s 3s 16 18 mph 1013.6mb 73f 73f
2:50 1.3ft 3s 3s 13 18 mph 1013.7mb 73f 73f
1:50 1ft 3s 3s 11 16 mph 1013.9mb 73f 73f
12:50 1.3ft 6s 4s 13 16 mph 1014.3mb 73f 73f
11:50 1.3ft 8s 4s 13 16 mph 1014.7mb 73f 73f
10:50 1.3ft 3s 4s 13 16 mph 1015mb 73f 72f
9:50 1.3ft 8s 3s 13 16 mph 1014.9mb 73f 73f
8:50 1ft 8s 4s 13 16 mph 1015.5mb 73f 72f
7:50 0.7ft  -  4s 13
mph
1015.8mb 73f 72f
6:50 0.7ft  -  3s 11 13 mph 1016mb 72f 73f
5:50 0.7ft  -  3s 11 13 mph 1015.7mb 72f 72f
4:50 1ft 2s 3s 11
mph
1016.1mb 72f 72f
3:50 1ft 2s 3s 11 13 mph 1016.1mb 71f 72f
2:50 1ft 2s 3s 11 13 mph 1016.2mb 71f 72f
1:50 1ft 3s 3s 13 16 mph 1016.3mb 71f 72f
12:50 1ft 2s 3s 13
mph
1016.7mb 72f 72f
lun. 07/27 11:50 1ft 3s 3s 13 16 mph 1016.8mb 73f 73f
10:50 1ft 10s 3s 13 16 mph 1016.8mb 73f 73f
9:50 1.3ft 7s 4s 11 13 mph 1016.8mb 73f 73f
8:50 1.3ft 3s 3s 11 13 mph 1016.7mb 73f 73f
7:50 1.3ft 6s 3s 13 16 mph 1016.2mb 73f 73f
6:50 1ft 3s 3s 13 16 mph 1016.2mb 73f 73f
5:50 1ft 3s 3s 13 16 mph 1016.2mb 73f 73f
4:50 1ft 2s 3s 13 18 mph 1016.5mb 73f 73f
3:50 1ft 2s 3s 13 16 mph 1016.6mb 73f 73f
2:50 1ft 4s 4s 9 11 mph 1017.1mb 72f 73f
1:50 1ft 2s 3s 9 11 mph 1017.5mb 71f 73f
12:50 1.3ft 6s 3s 13 16 mph 1017.8mb 72f 73f
11:50 1ft 3s 3s 11 13 mph 1017.9mb 72f 73f
10:50 1.3ft 3s 3s 11 13 mph 1017.6mb 73f 73f
9:50 1ft 3s 3s 11 13 mph 1017.3mb 73f 73f
8:50 1.3ft 3s 3s 11 13 mph 1017.2mb 73f 73f
7:50 1ft 3s 3s 13 18 mph 1016.7mb 73f 73f
6:50 1ft 3s 3s 13 18 mph 1016.4mb 72f 72f
5:50 1ft 3s 3s 13 16 mph 1016.5mb 72f 72f
4:50 1ft 3s 3s 13 16 mph 1016.3mb 72f 73f
3:50 1ft 2s 3s 13 16 mph 1016mb 71f 73f
2:50 1ft 2s 3s 11 13 mph 1016.2mb 71f 72f
1:50 1ft 3s 3s 13 16 mph 1016.3mb 70f 72f
12:50 1ft 2s 3s 11 16 mph 1016.5mb 70f 72f
dim. 07/26 11:50 1ft 3s 3s 13 16 mph 1016.8mb 71f 72f
10:50 1ft 2s 3s 13 16 mph 1016.8mb 72f 72f
9:50 1.3ft 6s 3s 11 13 mph 1016.6mb 73f 72f
8:50 1.6ft 3s 3s 11 13 mph 1016.4mb 73f 72f
7:50 1.6ft 3s 3s 13 16 mph 1016.6mb 73f 72f
6:50 1.6ft 3s 3s 16 20 mph 1016mb 73f 72f
5:50 1.6ft 3s 3s 18 20 mph 1016mb 73f 71f
4:50 1.6ft 3s 3s 18 22 mph 1016.4mb 72f 71f
3:50 1.6ft 3s 3s 20 22 mph 1016.5mb 72f 71f
2:50 2ft 3s 3s 18 20 mph 1016.8mb 72f 69f
1:50 1.6ft 3s 3s 18 20 mph 1017mb 71f 69f
12:50 1.6ft 3s 3s 16 18 mph 1017.2mb 71f 69f
11:50 1.3ft 2s 3s 16 18 mph 1017.5mb 71f 69f
10:50 1.3ft 3s 3s 16 18 mph 1017.4mb 72f 67f
9:50 1.3ft 3s 3s 16 18 mph 1017.6mb 72f 66f
8:50 1.3ft 3s 3s 13 16 mph 1017.6mb 73f 66f
7:50 1ft 3s 3s 13 16 mph 1017.3mb 73f 66f
6:50 1ft 11s 3s 11 13 mph 1016.9mb 72f 66f
5:50 0.7ft  -  3s 9 11 mph 1017mb 72f 65f
4:50 0.7ft  -  3s 7 9 mph 1016.9mb 72f 65f
3:50 0.7ft  -  3s 9 13 mph 1016.7mb 71f 65f
2:50 0.7ft  -  3s 9 11 mph 1016.7mb 71f 66f
1:50 0.7ft  -  4s 11 13 mph 1017mb 70f 66f
12:50 0.7ft  -  5s 9 11 mph 1017.2mb 69f 67f
sam. 07/25 11:50 0.7ft  -  4s 9
mph
1017.3mb 69f 66f
10:50 0.7ft  -  4s 7
mph
1017.5mb 71f 67f
9:50 0.7ft  -  4s 9 11 mph 1017.2mb 72f 67f
8:50 0.7ft  -  3s 9 11 mph 1016.8mb 73f 67f
7:50 1ft 6s 4s 9 11 mph 1016.6mb 73f 68f
6:50 1ft 2s 3s 7 11 mph 1016.2mb 73f 68f
5:50 1.3ft 3s 3s 11
mph
1016.7mb 73f 67f
4:50 0.7ft  -  3s 13 16 mph 1016.5mb 73f 69f
3:50 0.7ft  -  3s 7 9 mph 1016.3mb 73f 69f
2:50 1ft 3s 3s 7
mph
1016.2mb 73f 69f
1:50 1ft 2s 3s 4 7 mph 1016mb 72f 69f
12:50 1ft 4s 3s 4
mph
1016.3mb 71f 68f
11:50 1ft 3s 3s 4 7 mph 1016.1mb 71f 68f
10:50 0.7ft  -  4s 11 13 mph 1016.3mb 71f 69f
9:50 0.7ft  -  4s 7
mph
1015.8mb 72f 69f
8:50 0.7ft  -  4s 7 9 mph 1015.4mb 73f 70f
7:50 0.7ft  -  4s 7
mph
1015.1mb 73f 71f
6:50 1ft 11s 4s 7 9 mph 1014.5mb 73f 71f
5:50 0.7ft  -  4s 4 7 mph 1014.3mb 73f 70f
4:50 0.7ft  -  4s 7
mph
1013.6mb 72f 70f
3:50 0.3ft  -  3s 4 9 mph 1013.4mb 72f 70f